Akogare — JPDL — position and weather

sailwx.info

Track history (hours):
 
Tides and Currents Weather Stations Pressure Air Temp Water Temp Dewpoint Dewpoint Depression Visibility Wind Speed Wind Dir Waves Ship Positions

Akogare (Japan)

Ship's website: http://www.akogare.or.jp/eng/top.html

Last reported at 2019-Aug-24 05:50 UTC. Time now 2019-Aug-24 06:41 UTC.
Position N 34°41' E 135°11'.

Length 52 m; draft 4.5 m.

Type: Sailing vessel. MMSI: 431005001.

Date/timePositionNaut miles runAvg speedWind from/ knotsBaromVisibWave heightAir tempDewpointWater temp
2019-Aug-24 05:50N 34°41' E 135°11'1 1.8
2019-Aug-24 05:12N 34°40' E 135°12'1 5.5
2019-Aug-24 05:00N 34°39' E 135°11'3 5.4
2019-Aug-24 04:26N 34°37' E 135°08'3 6.7
2019-Aug-24 04:00N 34°35' E 135°06'6 5.2
2019-Aug-24 02:51N 34°37' E 134°59'4 6.7
2019-Aug-24 02:19N 34°36' E 135°03'4 6.4
2019-Aug-24 01:39N 34°38' E 135°08'1 6.8
2019-Aug-24 01:29N 34°38' E 135°09'3 0.2
2019-Aug-23 08:33N 34°41' E 135°11'0 0.0
2019-Aug-23 08:21N 34°41' E 135°11'0 0.0
2019-Aug-23 07:57N 34°41' E 135°11'0 0.0
2019-Aug-23 07:27N 34°41' E 135°11'0 0.0
2019-Aug-23 07:00N 34°41' E 135°11'0 0.2
2019-Aug-23 06:30N 34°41' E 135°11'1 1.9
2019-Aug-23 06:00N 34°40' E 135°12'1 2.8
2019-Aug-23 05:30N 34°39' E 135°11'1 3.0
2019-Aug-23 05:00N 34°38' E 135°10'2 4.8
2019-Aug-23 04:30N 34°37' E 135°12'2 4.9
2019-Aug-23 04:00N 34°38' E 135°15'2 4.3
2019-Aug-23 03:30N 34°39' E 135°17'2 4.1
2019-Aug-23 03:01N 34°41' E 135°18'1 2.0
2019-Aug-23 02:30N 34°42' E 135°17'1 1.4
2019-Aug-23 02:00N 34°41' E 135°18'2 3.9
2019-Aug-23 01:30N 34°39' E 135°17'3 6.1
2019-Aug-23 01:00N 34°38' E 135°14'3 5.2
2019-Aug-23 00:30N 34°39' E 135°11'2 4.5
2019-Aug-23 00:00N 34°41' E 135°11'0 0.1
2019-Aug-22 23:28N 34°41' E 135°11'0 0.1
2019-Aug-22 22:58N 34°41' E 135°11'0 0.1
2019-Aug-22 22:22N 34°41' E 135°11'0 0.0
2019-Aug-22 21:57N 34°41' E 135°11'0 0.0
2019-Aug-22 21:27N 34°41' E 135°11'0 0.0
2019-Aug-22 20:57N 34°41' E 135°11'0 0.1
2019-Aug-22 20:21N 34°41' E 135°11'0 0.0
2019-Aug-22 19:57N 34°41' E 135°11'0 0.0
2019-Aug-22 19:27N 34°41' E 135°11'0 0.0
2019-Aug-22 18:57N 34°41' E 135°11'0 0.0
2019-Aug-22 18:27N 34°41' E 135°11'0 0.1
2019-Aug-22 17:57N 34°41' E 135°11'0 0.0
2019-Aug-22 17:27N 34°41' E 135°11'0 0.0
2019-Aug-22 16:57N 34°41' E 135°11'0 0.0
2019-Aug-22 16:27N 34°41' E 135°11'0 0.0
2019-Aug-22 15:57N 34°41' E 135°11'0 0.1
2019-Aug-22 15:27N 34°41' E 135°11'0 0.0
2019-Aug-22 14:57N 34°41' E 135°11'0 0.0
2019-Aug-22 14:21N 34°41' E 135°11'0 0.1
2019-Aug-22 13:57N 34°41' E 135°11'0 0.1
2019-Aug-22 13:27N 34°41' E 135°11'0 0.0
2019-Aug-22 12:57N 34°41' E 135°11'0 0.0
2019-Aug-22 12:27N 34°41' E 135°11'0 0.0
2019-Aug-22 11:57N 34°41' E 135°11'0 0.1
2019-Aug-22 11:27N 34°41' E 135°11'0 0.1
2019-Aug-22 10:57N 34°41' E 135°11'0 0.1
2019-Aug-22 10:21N 34°41' E 135°11'0 0.0
2019-Aug-22 09:51N 34°41' E 135°11'0 0.1
2019-Aug-22 09:27N 34°41' E 135°11'0 0.1
2019-Aug-22 08:57N 34°41' E 135°11'0 0.1
2019-Aug-22 08:27N 34°41' E 135°11'0 0.1
2019-Aug-22 07:57N 34°41' E 135°11'0 0.0
2019-Aug-22 07:27N 34°41' E 135°11'0 0.1
2019-Aug-22 06:57N 34°41' E 135°11'0 0.0
2019-Aug-22 06:27N 34°41' E 135°11'0 0.0
2019-Aug-22 05:57N 34°41' E 135°11'0 0.0
2019-Aug-22 05:27N 34°41' E 135°11'0 0.1
2019-Aug-22 04:57N 34°41' E 135°11'0 0.0
2019-Aug-22 04:27N 34°41' E 135°11'0 0.1
2019-Aug-22 03:57N 34°41' E 135°11'0 0.0
2019-Aug-22 03:27N 34°41' E 135°11'0 0.0
2019-Aug-22 02:57N 34°41' E 135°11'0 0.1
2019-Aug-22 02:27N 34°41' E 135°11'0 0.1
2019-Aug-22 01:57N 34°41' E 135°11'0 0.1
2019-Aug-22 01:27N 34°41' E 135°11'0 0.1
2019-Aug-22 00:45N 34°41' E 135°11'0 0.0
2019-Aug-22 00:27N 34°41' E 135°11'0 0.0
2019-Aug-21 23:57N 34°41' E 135°11'0 0.0
2019-Aug-21 23:09N 34°41' E 135°11'0 0.0
2019-Aug-21 22:57N 34°41' E 135°11'0 0.0
2019-Aug-21 22:09N 34°41' E 135°11'0 0.0
2019-Aug-21 21:51N 34°41' E 135°11'0 0.0
2019-Aug-21 21:21N 34°41' E 135°11'0 0.0
2019-Aug-21 20:57N 34°41' E 135°11'0 0.0
2019-Aug-21 20:27N 34°41' E 135°11'0 0.1
2019-Aug-21 19:57N 34°41' E 135°11'0 0.1
2019-Aug-21 19:27N 34°41' E 135°11'0 0.0
2019-Aug-21 18:57N 34°41' E 135°11'0 0.1
2019-Aug-21 18:27N 34°41' E 135°11'0 0.1
2019-Aug-21 17:57N 34°41' E 135°11'0 0.0
2019-Aug-21 17:27N 34°41' E 135°11'0 0.0
2019-Aug-21 16:57N 34°41' E 135°11'0 0.0
2019-Aug-21 16:27N 34°41' E 135°11'0 0.1
2019-Aug-21 15:57N 34°41' E 135°11'0 0.0
2019-Aug-21 15:27N 34°41' E 135°11'0 0.0
2019-Aug-21 14:57N 34°41' E 135°11'0 0.0
2019-Aug-21 14:27N 34°41' E 135°11'0 0.1
2019-Aug-21 13:57N 34°41' E 135°11'0 0.0
2019-Aug-21 13:15N 34°41' E 135°11'0 0.2
2019-Aug-21 12:57N 34°41' E 135°11'0 0.0
2019-Aug-21 12:27N 34°41' E 135°11'0 0.1
2019-Aug-21 11:57N 34°41' E 135°11'0 0.1
2019-Aug-21 11:27N 34°41' E 135°11'0 0.0
2019-Aug-21 10:57N 34°41' E 135°11'0 0.1
2019-Aug-21 10:27N 34°41' E 135°11'0 0.1
2019-Aug-21 09:51N 34°41' E 135°11'0 0.1
2019-Aug-21 09:27N 34°41' E 135°11'0 0.1
2019-Aug-21 08:57N 34°41' E 135°11'0 0.0
2019-Aug-21 08:21N 34°41' E 135°11'0 0.0
2019-Aug-21 07:57N 34°41' E 135°11'0 0.0
2019-Aug-21 07:21N 34°41' E 135°11'0 0.1
2019-Aug-21 06:57N 34°41' E 135°11'0 0.1
2019-Aug-21 06:27N 34°41' E 135°11'0 0.0
2019-Aug-21 05:51N 34°41' E 135°11'0 0.1
2019-Aug-21 05:27N 34°41' E 135°11'0 0.0
2019-Aug-21 04:57N 34°41' E 135°11'0 0.1
2019-Aug-21 04:21N 34°41' E 135°11'0 0.1
2019-Aug-21 03:51N 34°41' E 135°11'0 0.0
2019-Aug-21 03:27N 34°41' E 135°11'0 0.0
2019-Aug-21 02:57N 34°41' E 135°11'0 0.1
2019-Aug-21 02:27N 34°41' E 135°11'0 0.1
2019-Aug-21 01:57N 34°41' E 135°11'0 0.1
2019-Aug-21 01:21N 34°41' E 135°11'0 0.0
2019-Aug-21 00:57N 34°41' E 135°11'0 0.0
2019-Aug-21 00:27N 34°41' E 135°11'0 0.1
2019-Aug-20 23:59N 34°41' E 135°11'0 0.1
2019-Aug-20 23:22N 34°41' E 135°11'0 0.0
2019-Aug-20 22:58N 34°41' E 135°11'0 0.0
2019-Aug-20 22:28N 34°41' E 135°11'0 0.0
2019-Aug-20 21:58N 34°41' E 135°11'0 0.0
2019-Aug-20 21:28N 34°41' E 135°11'0 0.0
2019-Aug-20 20:58N 34°41' E 135°11'0 0.0
2019-Aug-20 20:28N 34°41' E 135°11'0 0.0
2019-Aug-20 19:58N 34°41' E 135°11'0 0.0
2019-Aug-20 19:22N 34°41' E 135°11'0 0.0
2019-Aug-20 18:46N 34°41' E 135°11'0 0.0
2019-Aug-20 18:28N 34°41' E 135°11'0 0.0
2019-Aug-20 17:58N 34°41' E 135°11'0 0.0
2019-Aug-20 17:28N 34°41' E 135°11'0 0.0
2019-Aug-20 16:58N 34°41' E 135°11'0 0.0
2019-Aug-20 16:28N 34°41' E 135°11'0 0.0
2019-Aug-20 15:58N 34°41' E 135°11'0 0.0
2019-Aug-20 15:28N 34°41' E 135°11'0 0.0
2019-Aug-20 14:58N 34°41' E 135°11'0 0.0
2019-Aug-20 14:28N 34°41' E 135°11'0 0.0
2019-Aug-20 13:58N 34°41' E 135°11'0 0.0
2019-Aug-20 13:28N 34°41' E 135°11'0 0.0
2019-Aug-20 12:58N 34°41' E 135°11'0 0.0
2019-Aug-20 12:28N 34°41' E 135°11'0 0.0
2019-Aug-20 11:58N 34°41' E 135°11'0 0.0
2019-Aug-20 11:28N 34°41' E 135°11'0 0.0
2019-Aug-20 10:58N 34°41' E 135°11'0 0.0
2019-Aug-20 10:22N 34°41' E 135°11'0 0.0
2019-Aug-20 09:58N 34°41' E 135°11'0 0.0
2019-Aug-20 09:28N 34°41' E 135°11'0 0.0
2019-Aug-20 08:58N 34°41' E 135°11'0 0.0
2019-Aug-20 08:28N 34°41' E 135°11'0 0.0
2019-Aug-20 07:52N 34°41' E 135°11'0 0.0
2019-Aug-20 07:28N 34°41' E 135°11'0 0.0
2019-Aug-20 06:58N 34°41' E 135°11'0 0.0
2019-Aug-20 06:28N 34°41' E 135°11'0 0.0
2019-Aug-20 05:58N 34°41' E 135°11'0 0.0
2019-Aug-20 05:28N 34°41' E 135°11'0 0.0
2019-Aug-20 04:58N 34°41' E 135°11'0 0.0
2019-Aug-20 04:28N 34°41' E 135°11'0 0.0
2019-Aug-20 03:46N 34°41' E 135°11'0 0.0
2019-Aug-20 03:28N 34°41' E 135°11'0 0.0
2019-Aug-20 02:58N 34°41' E 135°11'0 0.0
2019-Aug-20 02:28N 34°41' E 135°11'0 0.0
2019-Aug-20 01:52N 34°41' E 135°11'0 0.0
2019-Aug-20 01:22N 34°41' E 135°11'0 0.0
2019-Aug-20 00:52N 34°41' E 135°11'0 0.0
2019-Aug-20 00:28N 34°41' E 135°11'0 0.0
2019-Aug-19 23:58N 34°41' E 135°11'0 0.0
2019-Aug-19 23:28N 34°41' E 135°11'0 0.0
2019-Aug-19 22:58N 34°41' E 135°11'0 0.0
2019-Aug-19 22:28N 34°41' E 135°11'0 0.0
2019-Aug-19 21:58N 34°41' E 135°11'0 0.0
2019-Aug-19 21:28N 34°41' E 135°11'0 0.0
2019-Aug-19 20:58N 34°41' E 135°11'0 0.0
2019-Aug-19 20:28N 34°41' E 135°11'0 0.0
2019-Aug-19 19:52N 34°41' E 135°11'0 0.0
2019-Aug-19 19:10N 34°41' E 135°11'0 0.0
2019-Aug-19 18:58N 34°41' E 135°11'0 0.0
2019-Aug-19 18:28N 34°41' E 135°11'0 0.0
2019-Aug-19 17:52N 34°41' E 135°11'0 0.0
2019-Aug-19 17:22N 34°41' E 135°11'0 0.0
2019-Aug-19 16:58N 34°41' E 135°11'0 0.0
2019-Aug-19 16:28N 34°41' E 135°11'0 0.0
2019-Aug-19 15:58N 34°41' E 135°11'0 0.0
2019-Aug-19 15:28N 34°41' E 135°11'0 0.0
2019-Aug-19 14:52N 34°41' E 135°11'0 0.0
2019-Aug-19 14:28N 34°41' E 135°11'0 0.0
2019-Aug-19 13:58N 34°41' E 135°11'0 0.0
2019-Aug-19 13:28N 34°41' E 135°11'0 0.0
2019-Aug-19 12:58N 34°41' E 135°11'0 0.0
2019-Aug-19 12:28N 34°41' E 135°11'0 0.0
2019-Aug-19 11:58N 34°41' E 135°11'0 0.0
2019-Aug-19 11:28N 34°41' E 135°11'0 0.0
2019-Aug-19 10:58N 34°41' E 135°11'0 0.0
2019-Aug-19 10:28N 34°41' E 135°11'0 0.0
2019-Aug-19 09:58N 34°41' E 135°11'0 0.0
2019-Aug-19 09:22N 34°41' E 135°11'0 0.0
2019-Aug-19 08:58N 34°41' E 135°11'0 0.0
2019-Aug-19 08:22N 34°41' E 135°11'0 0.0
2019-Aug-19 07:58N 34°41' E 135°11'0 0.0
2019-Aug-19 07:28N 34°41' E 135°11'0 0.0
2019-Aug-19 06:58N 34°41' E 135°11'0 0.0
2019-Aug-19 06:28N 34°41' E 135°11'0 0.0
2019-Aug-19 05:52N 34°41' E 135°11'0 0.0
2019-Aug-19 05:28N 34°41' E 135°11'0 0.0
2019-Aug-19 04:58N 34°41' E 135°11'0 0.0
2019-Aug-19 04:28N 34°41' E 135°11'0 0.0
2019-Aug-19 03:58N 34°41' E 135°11'0 0.0
2019-Aug-19 03:28N 34°41' E 135°11'0 0.0
2019-Aug-19 02:52N 34°41' E 135°11'0 0.0
2019-Aug-19 02:28N 34°41' E 135°11'0 0.0
2019-Aug-19 01:58N 34°41' E 135°11'0 0.0
2019-Aug-19 01:28N 34°41' E 135°11'0 0.0
2019-Aug-19 00:52N 34°41' E 135°11'0 0.0
2019-Aug-19 00:28N 34°41' E 135°11'0 0.0
2019-Aug-18 23:58N 34°41' E 135°11'0 0.0
2019-Aug-18 23:28N 34°41' E 135°11'0 0.0
2019-Aug-18 22:58N 34°41' E 135°11'0 0.0
2019-Aug-18 22:28N 34°41' E 135°11'0 0.0
2019-Aug-18 21:52N 34°41' E 135°11'0 0.0
2019-Aug-18 21:28N 34°41' E 135°11'0 0.0
2019-Aug-18 20:58N 34°41' E 135°11'0 0.0
2019-Aug-18 20:16N 34°41' E 135°11'0 0.0
2019-Aug-18 19:58N 34°41' E 135°11'0 0.0
2019-Aug-18 19:28N 34°41' E 135°11'0 0.0
2019-Aug-18 18:58N 34°41' E 135°11'0 0.0
2019-Aug-18 18:28N 34°41' E 135°11'0 0.0
2019-Aug-18 17:58N 34°41' E 135°11'0 0.0
2019-Aug-18 17:28N 34°41' E 135°11'0 0.0
2019-Aug-18 16:58N 34°41' E 135°11'0 0.0
2019-Aug-18 16:22N 34°41' E 135°11'0 0.0
2019-Aug-18 15:58N 34°41' E 135°11'0 0.0
2019-Aug-18 15:28N 34°41' E 135°11'0 0.0
2019-Aug-18 14:58N 34°41' E 135°11'0 0.0
2019-Aug-18 14:28N 34°41' E 135°11'0 0.0
2019-Aug-18 13:52N 34°41' E 135°11'0 0.0
2019-Aug-18 13:28N 34°41' E 135°11'0 0.0
2019-Aug-18 12:52N 34°41' E 135°11'0 0.0
2019-Aug-18 12:28N 34°41' E 135°11'0 0.0
2019-Aug-18 11:58N 34°41' E 135°11'0 0.0
2019-Aug-18 11:28N 34°41' E 135°11'0 0.0
2019-Aug-18 10:58N 34°41' E 135°11'0 0.0
2019-Aug-18 10:28N 34°41' E 135°11'0 0.0
2019-Aug-18 09:58N 34°41' E 135°11'0 0.0
2019-Aug-18 09:28N 34°41' E 135°11'0 0.0
2019-Aug-18 08:58N 34°41' E 135°11'0 0.0
2019-Aug-18 08:28N 34°41' E 135°11'0 0.0
2019-Aug-18 07:58N 34°41' E 135°11'0 0.0
2019-Aug-18 06:46N 34°41' E 135°11'0 0.0
2019-Aug-18 06:28N 34°41' E 135°11'0 0.0
2019-Aug-18 05:52N 34°41' E 135°11'0 0.0
2019-Aug-18 05:28N 34°41' E 135°11'0 0.0
2019-Aug-18 04:52N 34°41' E 135°11'0 0.0
2019-Aug-18 04:28N 34°41' E 135°11'0 0.0
2019-Aug-18 03:52N 34°41' E 135°11'0 0.0
2019-Aug-18 03:22N 34°41' E 135°11'0 0.0
2019-Aug-18 02:58N 34°41' E 135°11'0 0.0
2019-Aug-18 02:28N 34°41' E 135°11'0 0.0
2019-Aug-18 01:52N 34°41' E 135°11'0 0.0
2019-Aug-18 01:28N 34°41' E 135°11'0 0.0
2019-Aug-18 00:58N 34°41' E 135°11'0 0.0
2019-Aug-18 00:28N 34°41' E 135°11'0 0.0
2019-Aug-17 23:58N 34°41' E 135°11'0 0.0
2019-Aug-17 23:28N 34°41' E 135°11'0 0.0
2019-Aug-17 22:58N 34°41' E 135°11'0 0.0
2019-Aug-17 22:28N 34°41' E 135°11'0 0.0
2019-Aug-17 21:58N 34°41' E 135°11'0 0.0
2019-Aug-17 21:28N 34°41' E 135°11'0 0.0
2019-Aug-17 20:58N 34°41' E 135°11'0 0.0
2019-Aug-17 20:28N 34°41' E 135°11'0 0.0
2019-Aug-17 19:58N 34°41' E 135°11'0 0.0
2019-Aug-17 19:28N 34°41' E 135°11'0 0.0
2019-Aug-17 18:58N 34°41' E 135°11'0 0.0
2019-Aug-17 18:28N 34°41' E 135°11'0 0.0
2019-Aug-17 17:28N 34°41' E 135°11'0 0.0
2019-Aug-17 16:40N 34°41' E 135°11'0 0.0
2019-Aug-17 16:22N 34°41' E 135°11'0 0.0
2019-Aug-17 15:52N 34°41' E 135°11'0 0.0
2019-Aug-17 15:16N 34°41' E 135°11'0 0.0
2019-Aug-17 14:58N 34°41' E 135°11'0 0.0
2019-Aug-17 14:28N 34°41' E 135°11'0 0.0
2019-Aug-17 13:58N 34°41' E 135°11'0 0.0
2019-Aug-17 13:28N 34°41' E 135°11'0 0.0
2019-Aug-17 12:58N 34°41' E 135°11'0 0.0
2019-Aug-17 12:28N 34°41' E 135°11'0 0.0
2019-Aug-17 11:58N 34°41' E 135°11'0 0.0
2019-Aug-17 11:28N 34°41' E 135°11'0 0.0
2019-Aug-17 10:58N 34°41' E 135°11'0 0.0
2019-Aug-17 10:28N 34°41' E 135°11'0 0.0
2019-Aug-17 09:58N 34°41' E 135°11'0 0.0
2019-Aug-17 09:28N 34°41' E 135°11'0 0.0
2019-Aug-17 08:58N 34°41' E 135°11'0 0.0
2019-Aug-17 08:28N 34°41' E 135°11'0 0.0
2019-Aug-17 07:58N 34°41' E 135°11'0 0.0
2019-Aug-17 07:28N 34°41' E 135°11'0 0.0
2019-Aug-17 06:58N 34°41' E 135°11'0 0.0
2019-Aug-17 06:28N 34°41' E 135°11'0 0.0
2019-Aug-17 05:58N 34°41' E 135°11'0 0.0
2019-Aug-17 05:28N 34°41' E 135°11'0 0.0
2019-Aug-17 04:58N 34°41' E 135°11'0 0.0
2019-Aug-17 04:28N 34°41' E 135°11'0 0.0
2019-Aug-17 03:58N 34°41' E 135°11'0 0.0
2019-Aug-17 03:28N 34°41' E 135°11'0 0.0
2019-Aug-17 03:00N 34°41' E 135°11'2 4.9
2019-Aug-17 02:30N 34°39' E 135°11'2 4.8
2019-Aug-17 02:01N 34°38' E 135°14'3 6.3
2019-Aug-17 01:30N 34°38' E 135°18'3 6.4
2019-Aug-17 01:01N 34°39' E 135°22'3 6.0
2019-Aug-17 00:30N 34°39' E 135°25'2 2.7
2019-Aug-16 23:54N 34°37' E 135°26'0 0.0
2019-Aug-16 23:30N 34°37' E 135°26'0 0.0
2019-Aug-16 22:30N 34°37' E 135°26'0 0.0
2019-Aug-16 19:54N 34°37' E 135°26'0 0.0
2019-Aug-16 18:30N 34°37' E 135°26'0 0.0
2019-Aug-16 16:42N 34°37' E 135°26'0 0.0
2019-Aug-16 15:42N 34°37' E 135°26'0 0.0
2019-Aug-16 15:24N 34°37' E 135°26'0 0.0
2019-Aug-16 14:00N 34°37' E 135°26'0 0.1
2019-Aug-16 13:30N 34°37' E 135°26'0 0.0
2019-Aug-16 13:00N 34°37' E 135°26'0 0.1
2019-Aug-16 12:30N 34°37' E 135°26'0 0.1
2019-Aug-16 12:00N 34°37' E 135°26'0 0.0
2019-Aug-16 11:24N 34°37' E 135°26'0 0.0
2019-Aug-16 09:42N 34°37' E 135°26'0 0.2
2019-Aug-16 09:24N 34°37' E 135°26'0 0.1
2019-Aug-16 08:36N 34°37' E 135°26'0 0.0
2019-Aug-16 06:18N 34°37' E 135°26'0 0.0
2019-Aug-16 04:48N 34°37' E 135°26'0 0.0
2019-Aug-16 03:24N 34°37' E 135°26'0 0.0
2019-Aug-16 02:24N 34°37' E 135°26'0 0.0
2019-Aug-16 00:06N 34°37' E 135°26'0 0.0
2019-Aug-15 23:54N 34°37' E 135°26'0 0.0
2019-Aug-15 23:24N 34°37' E 135°26'0 0.0
2019-Aug-15 21:36N 34°37' E 135°26'0 0.2
2019-Aug-15 21:24N 34°37' E 135°26'0 0.1
2019-Aug-15 21:00N 34°37' E 135°26'0 0.0
2019-Aug-15 20:24N 34°37' E 135°26'0 0.0
2019-Aug-15 19:42N 34°37' E 135°26'0 0.0
2019-Aug-15 19:18N 34°37' E 135°26'0 0.0
2019-Aug-15 19:00N 34°37' E 135°26'0 0.0
2019-Aug-15 18:24N 34°37' E 135°26'0 0.0
2019-Aug-15 17:48N 34°37' E 135°26'0 0.0
2019-Aug-15 17:24N 34°37' E 135°26'0 0.0
2019-Aug-15 16:54N 34°37' E 135°26'0 0.0
2019-Aug-15 16:30N 34°37' E 135°26'0 0.0
2019-Aug-15 15:54N 34°37' E 135°26'0 0.0
2019-Aug-15 15:18N 34°37' E 135°26'0 0.0
2019-Aug-15 15:00N 34°37' E 135°26'0 0.1
2019-Aug-15 14:12N 34°37' E 135°26'0 0.0
2019-Aug-15 13:54N 34°37' E 135°26'0 0.0
2019-Aug-15 12:54N 34°37' E 135°26'0 0.0
2019-Aug-15 12:30N 34°37' E 135°26'0 0.1
2019-Aug-15 12:00N 34°37' E 135°26'0 0.1
2019-Aug-15 11:18N 34°37' E 135°26'0 0.0
2019-Aug-15 10:48N 34°37' E 135°26'0 0.2
2019-Aug-15 10:30N 34°37' E 135°26'0 0.0
2019-Aug-15 09:54N 34°37' E 135°26'0 0.1
2019-Aug-15 09:24N 34°37' E 135°26'0 0.1
2019-Aug-15 09:00N 34°37' E 135°26'0 0.0
2019-Aug-15 08:24N 34°37' E 135°26'0 0.0
2019-Aug-15 08:00N 34°37' E 135°26'0 0.0
2019-Aug-15 07:18N 34°37' E 135°26'0 0.0
2019-Aug-15 06:36N 34°37' E 135°26'0 0.0
2019-Aug-15 06:24N 34°37' E 135°26'0 0.0
2019-Aug-15 05:48N 34°37' E 135°26'0 0.0
2019-Aug-15 05:06N 34°37' E 135°26'0 0.0
2019-Aug-15 04:18N 34°37' E 135°26'0 0.0
2019-Aug-15 04:00N 34°37' E 135°26'0 0.1
2019-Aug-15 03:12N 34°37' E 135°26'0 0.0
2019-Aug-15 01:06N 34°37' E 135°26'0 0.1
2019-Aug-15 00:30N 34°37' E 135°26'0 0.1
2019-Aug-14 23:42N 34°37' E 135°26'0 0.1
2019-Aug-14 23:00N 34°37' E 135°26'0 0.0
2019-Aug-14 21:48N 34°37' E 135°26'0 0.0
2019-Aug-14 21:30N 34°37' E 135°26'0 0.1
2019-Aug-14 20:42N 34°37' E 135°26'0 0.1
2019-Aug-14 20:12N 34°37' E 135°26'0 0.0
2019-Aug-14 19:48N 34°37' E 135°26'0 0.0
2019-Aug-14 19:30N 34°37' E 135°26'0 0.1
2019-Aug-14 18:42N 34°37' E 135°26'0 0.2
2019-Aug-14 18:30N 34°37' E 135°26'0 0.0
2019-Aug-14 17:24N 34°37' E 135°26'0 0.0
2019-Aug-14 16:54N 34°37' E 135°26'0 0.0
2019-Aug-14 16:06N 34°37' E 135°26'0 0.0
2019-Aug-14 16:00N 34°37' E 135°26'0 0.0
2019-Aug-14 15:12N 34°37' E 135°26'0 0.0
2019-Aug-14 14:24N 34°37' E 135°26'0 0.0
2019-Aug-14 13:48N 34°37' E 135°26'0 0.0
2019-Aug-14 13:24N 34°37' E 135°26'0 0.1
2019-Aug-14 13:00N 34°37' E 135°26'0 0.1
2019-Aug-14 12:12N 34°37' E 135°26'0 0.0
2019-Aug-14 11:48N 34°37' E 135°26'0 0.0
2019-Aug-14 11:06N 34°37' E 135°26'0 0.0
2019-Aug-14 10:18N 34°37' E 135°26'0 0.0
2019-Aug-14 10:00N 34°37' E 135°26'0 0.0
2019-Aug-14 09:06N 34°37' E 135°26'0 0.0
2019-Aug-14 09:00N 34°37' E 135°26'0 0.0
2019-Aug-14 08:24N 34°37' E 135°26'0 0.0
2019-Aug-14 08:00N 34°37' E 135°26'0 0.0
2019-Aug-14 07:18N 34°37' E 135°26'0 0.1
2019-Aug-14 06:48N 34°37' E 135°26'  
Track history (hours):
 
Tides and Currents Weather Stations Pressure Air Temp Water Temp Dewpoint Dewpoint Depression Visibility Wind Speed Wind Dir Waves Ship Positions

Akogare (Japan)

Ship's website: http://www.akogare.or.jp/eng/top.html

Last reported at 2019-Aug-24 05:50 UTC. Time now 2019-Aug-24 06:41 UTC.
Position N 34°41' E 135°11'.

Length 52 m; draft 4.5 m.

Type: Sailing vessel. MMSI: 431005001.

Date/timePositionNaut miles runAvg speedWind from/ knotsBaromVisibWave heightAir tempDewpointWater temp
2019-Aug-24 05:50N 34°41' E 135°11'1 1.8
2019-Aug-24 05:12N 34°40' E 135°12'1 5.5
2019-Aug-24 05:00N 34°39' E 135°11'3 5.4
2019-Aug-24 04:26N 34°37' E 135°08'3 6.7
2019-Aug-24 04:00N 34°35' E 135°06'6 5.2
2019-Aug-24 02:51N 34°37' E 134°59'4 6.7
2019-Aug-24 02:19N 34°36' E 135°03'4 6.4
2019-Aug-24 01:39N 34°38' E 135°08'1 6.8
2019-Aug-24 01:29N 34°38' E 135°09'3 0.2
2019-Aug-23 08:33N 34°41' E 135°11'0 0.0
2019-Aug-23 08:21N 34°41' E 135°11'0 0.0
2019-Aug-23 07:57N 34°41' E 135°11'0 0.0
2019-Aug-23 07:27N 34°41' E 135°11'0 0.0
2019-Aug-23 07:00N 34°41' E 135°11'0 0.2
2019-Aug-23 06:30N 34°41' E 135°11'1 1.9
2019-Aug-23 06:00N 34°40' E 135°12'1 2.8
2019-Aug-23 05:30N 34°39' E 135°11'1 3.0
2019-Aug-23 05:00N 34°38' E 135°10'2 4.8
2019-Aug-23 04:30N 34°37' E 135°12'2 4.9
2019-Aug-23 04:00N 34°38' E 135°15'2 4.3
2019-Aug-23 03:30N 34°39' E 135°17'2 4.1
2019-Aug-23 03:01N 34°41' E 135°18'1 2.0
2019-Aug-23 02:30N 34°42' E 135°17'1 1.4
2019-Aug-23 02:00N 34°41' E 135°18'2 3.9
2019-Aug-23 01:30N 34°39' E 135°17'3 6.1
2019-Aug-23 01:00N 34°38' E 135°14'3 5.2
2019-Aug-23 00:30N 34°39' E 135°11'2 4.5
2019-Aug-23 00:00N 34°41' E 135°11'0 0.1
2019-Aug-22 23:28N 34°41' E 135°11'0 0.1
2019-Aug-22 22:58N 34°41' E 135°11'0 0.1
2019-Aug-22 22:22N 34°41' E 135°11'0 0.0
2019-Aug-22 21:57N 34°41' E 135°11'0 0.0
2019-Aug-22 21:27N 34°41' E 135°11'0 0.0
2019-Aug-22 20:57N 34°41' E 135°11'0 0.1
2019-Aug-22 20:21N 34°41' E 135°11'0 0.0
2019-Aug-22 19:57N 34°41' E 135°11'0 0.0
2019-Aug-22 19:27N 34°41' E 135°11'0 0.0
2019-Aug-22 18:57N 34°41' E 135°11'0 0.0
2019-Aug-22 18:27N 34°41' E 135°11'0 0.1
2019-Aug-22 17:57N 34°41' E 135°11'0 0.0
2019-Aug-22 17:27N 34°41' E 135°11'0 0.0
2019-Aug-22 16:57N 34°41' E 135°11'0 0.0
2019-Aug-22 16:27N 34°41' E 135°11'0 0.0
2019-Aug-22 15:57N 34°41' E 135°11'0 0.1
2019-Aug-22 15:27N 34°41' E 135°11'0 0.0
2019-Aug-22 14:57N 34°41' E 135°11'0 0.0
2019-Aug-22 14:21N 34°41' E 135°11'0 0.1
2019-Aug-22 13:57N 34°41' E 135°11'0 0.1
2019-Aug-22 13:27N 34°41' E 135°11'0 0.0
2019-Aug-22 12:57N 34°41' E 135°11'0 0.0
2019-Aug-22 12:27N 34°41' E 135°11'0 0.0
2019-Aug-22 11:57N 34°41' E 135°11'0 0.1
2019-Aug-22 11:27N 34°41' E 135°11'0 0.1
2019-Aug-22 10:57N 34°41' E 135°11'0 0.1
2019-Aug-22 10:21N 34°41' E 135°11'0 0.0
2019-Aug-22 09:51N 34°41' E 135°11'0 0.1
2019-Aug-22 09:27N 34°41' E 135°11'0 0.1
2019-Aug-22 08:57N 34°41' E 135°11'0 0.1
2019-Aug-22 08:27N 34°41' E 135°11'0 0.1
2019-Aug-22 07:57N 34°41' E 135°11'0 0.0
2019-Aug-22 07:27N 34°41' E 135°11'0 0.1
2019-Aug-22 06:57N 34°41' E 135°11'0 0.0
2019-Aug-22 06:27N 34°41' E 135°11'0 0.0
2019-Aug-22 05:57N 34°41' E 135°11'0 0.0
2019-Aug-22 05:27N 34°41' E 135°11'0 0.1
2019-Aug-22 04:57N 34°41' E 135°11'0 0.0
2019-Aug-22 04:27N 34°41' E 135°11'0 0.1
2019-Aug-22 03:57N 34°41' E 135°11'0 0.0
2019-Aug-22 03:27N 34°41' E 135°11'0 0.0
2019-Aug-22 02:57N 34°41' E 135°11'0 0.1
2019-Aug-22 02:27N 34°41' E 135°11'0 0.1
2019-Aug-22 01:57N 34°41' E 135°11'0 0.1
2019-Aug-22 01:27N 34°41' E 135°11'0 0.1
2019-Aug-22 00:45N 34°41' E 135°11'0 0.0
2019-Aug-22 00:27N 34°41' E 135°11'0 0.0
2019-Aug-21 23:57N 34°41' E 135°11'0 0.0
2019-Aug-21 23:09N 34°41' E 135°11'0 0.0
2019-Aug-21 22:57N 34°41' E 135°11'0 0.0
2019-Aug-21 22:09N 34°41' E 135°11'0 0.0
2019-Aug-21 21:51N 34°41' E 135°11'0 0.0
2019-Aug-21 21:21N 34°41' E 135°11'0 0.0
2019-Aug-21 20:57N 34°41' E 135°11'0 0.0
2019-Aug-21 20:27N 34°41' E 135°11'0 0.1
2019-Aug-21 19:57N 34°41' E 135°11'0 0.1
2019-Aug-21 19:27N 34°41' E 135°11'0 0.0
2019-Aug-21 18:57N 34°41' E 135°11'0 0.1
2019-Aug-21 18:27N 34°41' E 135°11'0 0.1
2019-Aug-21 17:57N 34°41' E 135°11'0 0.0
2019-Aug-21 17:27N 34°41' E 135°11'0 0.0
2019-Aug-21 16:57N 34°41' E 135°11'0 0.0
2019-Aug-21 16:27N 34°41' E 135°11'0 0.1
2019-Aug-21 15:57N 34°41' E 135°11'0 0.0
2019-Aug-21 15:27N 34°41' E 135°11'0 0.0
2019-Aug-21 14:57N 34°41' E 135°11'0 0.0
2019-Aug-21 14:27N 34°41' E 135°11'0 0.1
2019-Aug-21 13:57N 34°41' E 135°11'0 0.0
2019-Aug-21 13:15N 34°41' E 135°11'0 0.2
2019-Aug-21 12:57N 34°41' E 135°11'0 0.0
2019-Aug-21 12:27N 34°41' E 135°11'0 0.1
2019-Aug-21 11:57N 34°41' E 135°11'0 0.1
2019-Aug-21 11:27N 34°41' E 135°11'0 0.0
2019-Aug-21 10:57N 34°41' E 135°11'0 0.1
2019-Aug-21 10:27N 34°41' E 135°11'0 0.1
2019-Aug-21 09:51N 34°41' E 135°11'0 0.1
2019-Aug-21 09:27N 34°41' E 135°11'0 0.1
2019-Aug-21 08:57N 34°41' E 135°11'0 0.0
2019-Aug-21 08:21N 34°41' E 135°11'0 0.0
2019-Aug-21 07:57N 34°41' E 135°11'0 0.0
2019-Aug-21 07:21N 34°41' E 135°11'0 0.1
2019-Aug-21 06:57N 34°41' E 135°11'0 0.1
2019-Aug-21 06:27N 34°41' E 135°11'0 0.0
2019-Aug-21 05:51N 34°41' E 135°11'0 0.1
2019-Aug-21 05:27N 34°41' E 135°11'0 0.0
2019-Aug-21 04:57N 34°41' E 135°11'0 0.1
2019-Aug-21 04:21N 34°41' E 135°11'0 0.1
2019-Aug-21 03:51N 34°41' E 135°11'0 0.0
2019-Aug-21 03:27N 34°41' E 135°11'0 0.0
2019-Aug-21 02:57N 34°41' E 135°11'0 0.1
2019-Aug-21 02:27N 34°41' E 135°11'0 0.1
2019-Aug-21 01:57N 34°41' E 135°11'0 0.1
2019-Aug-21 01:21N 34°41' E 135°11'0 0.0
2019-Aug-21 00:57N 34°41' E 135°11'0 0.0
2019-Aug-21 00:27N 34°41' E 135°11'0 0.1
2019-Aug-20 23:59N 34°41' E 135°11'0 0.1
2019-Aug-20 23:22N 34°41' E 135°11'0 0.0
2019-Aug-20 22:58N 34°41' E 135°11'0 0.0
2019-Aug-20 22:28N 34°41' E 135°11'0 0.0
2019-Aug-20 21:58N 34°41' E 135°11'0 0.0
2019-Aug-20 21:28N 34°41' E 135°11'0 0.0
2019-Aug-20 20:58N 34°41' E 135°11'0 0.0
2019-Aug-20 20:28N 34°41' E 135°11'0 0.0
2019-Aug-20 19:58N 34°41' E 135°11'0 0.0
2019-Aug-20 19:22N 34°41' E 135°11'0 0.0
2019-Aug-20 18:46N 34°41' E 135°11'0 0.0
2019-Aug-20 18:28N 34°41' E 135°11'0 0.0
2019-Aug-20 17:58N 34°41' E 135°11'0 0.0
2019-Aug-20 17:28N 34°41' E 135°11'0 0.0
2019-Aug-20 16:58N 34°41' E 135°11'0 0.0
2019-Aug-20 16:28N 34°41' E 135°11'0 0.0
2019-Aug-20 15:58N 34°41' E 135°11'0 0.0
2019-Aug-20 15:28N 34°41' E 135°11'0 0.0
2019-Aug-20 14:58N 34°41' E 135°11'0 0.0
2019-Aug-20 14:28N 34°41' E 135°11'0 0.0
2019-Aug-20 13:58N 34°41' E 135°11'0 0.0
2019-Aug-20 13:28N 34°41' E 135°11'0 0.0
2019-Aug-20 12:58N 34°41' E 135°11'0 0.0
2019-Aug-20 12:28N 34°41' E 135°11'0 0.0
2019-Aug-20 11:58N 34°41' E 135°11'0 0.0
2019-Aug-20 11:28N 34°41' E 135°11'0 0.0
2019-Aug-20 10:58N 34°41' E 135°11'0 0.0
2019-Aug-20 10:22N 34°41' E 135°11'0 0.0
2019-Aug-20 09:58N 34°41' E 135°11'0 0.0
2019-Aug-20 09:28N 34°41' E 135°11'0 0.0
2019-Aug-20 08:58N 34°41' E 135°11'0 0.0
2019-Aug-20 08:28N 34°41' E 135°11'0 0.0
2019-Aug-20 07:52N 34°41' E 135°11'0 0.0
2019-Aug-20 07:28N 34°41' E 135°11'0 0.0
2019-Aug-20 06:58N 34°41' E 135°11'0 0.0
2019-Aug-20 06:28N 34°41' E 135°11'0 0.0
2019-Aug-20 05:58N 34°41' E 135°11'0 0.0
2019-Aug-20 05:28N 34°41' E 135°11'0 0.0
2019-Aug-20 04:58N 34°41' E 135°11'0 0.0
2019-Aug-20 04:28N 34°41' E 135°11'0 0.0
2019-Aug-20 03:46N 34°41' E 135°11'0 0.0
2019-Aug-20 03:28N 34°41' E 135°11'0 0.0
2019-Aug-20 02:58N 34°41' E 135°11'0 0.0
2019-Aug-20 02:28N 34°41' E 135°11'0 0.0
2019-Aug-20 01:52N 34°41' E 135°11'0 0.0
2019-Aug-20 01:22N 34°41' E 135°11'0 0.0
2019-Aug-20 00:52N 34°41' E 135°11'0 0.0
2019-Aug-20 00:28N 34°41' E 135°11'0 0.0
2019-Aug-19 23:58N 34°41' E 135°11'0 0.0
2019-Aug-19 23:28N 34°41' E 135°11'0 0.0
2019-Aug-19 22:58N 34°41' E 135°11'0 0.0
2019-Aug-19 22:28N 34°41' E 135°11'0 0.0
2019-Aug-19 21:58N 34°41' E 135°11'0 0.0
2019-Aug-19 21:28N 34°41' E 135°11'0 0.0
2019-Aug-19 20:58N 34°41' E 135°11'0 0.0
2019-Aug-19 20:28N 34°41' E 135°11'0 0.0
2019-Aug-19 19:52N 34°41' E 135°11'0 0.0
2019-Aug-19 19:10N 34°41' E 135°11'0 0.0
2019-Aug-19 18:58N 34°41' E 135°11'0 0.0
2019-Aug-19 18:28N 34°41' E 135°11'0 0.0
2019-Aug-19 17:52N 34°41' E 135°11'0 0.0
2019-Aug-19 17:22N 34°41' E 135°11'0 0.0
2019-Aug-19 16:58N 34°41' E 135°11'0 0.0
2019-Aug-19 16:28N 34°41' E 135°11'0 0.0
2019-Aug-19 15:58N 34°41' E 135°11'0 0.0
2019-Aug-19 15:28N 34°41' E 135°11'0 0.0
2019-Aug-19 14:52N 34°41' E 135°11'0 0.0
2019-Aug-19 14:28N 34°41' E 135°11'0 0.0
2019-Aug-19 13:58N 34°41' E 135°11'0 0.0
2019-Aug-19 13:28N 34°41' E 135°11'0 0.0
2019-Aug-19 12:58N 34°41' E 135°11'0 0.0
2019-Aug-19 12:28N 34°41' E 135°11'0 0.0
2019-Aug-19 11:58N 34°41' E 135°11'0 0.0
2019-Aug-19 11:28N 34°41' E 135°11'0 0.0
2019-Aug-19 10:58N 34°41' E 135°11'0 0.0
2019-Aug-19 10:28N 34°41' E 135°11'0 0.0
2019-Aug-19 09:58N 34°41' E 135°11'0 0.0
2019-Aug-19 09:22N 34°41' E 135°11'0 0.0
2019-Aug-19 08:58N 34°41' E 135°11'0 0.0
2019-Aug-19 08:22N 34°41' E 135°11'0 0.0
2019-Aug-19 07:58N 34°41' E 135°11'0 0.0
2019-Aug-19 07:28N 34°41' E 135°11'0 0.0
2019-Aug-19 06:58N 34°41' E 135°11'0 0.0
2019-Aug-19 06:28N 34°41' E 135°11'0 0.0
2019-Aug-19 05:52N 34°41' E 135°11'0 0.0
2019-Aug-19 05:28N 34°41' E 135°11'0 0.0
2019-Aug-19 04:58N 34°41' E 135°11'0 0.0
2019-Aug-19 04:28N 34°41' E 135°11'0 0.0
2019-Aug-19 03:58N 34°41' E 135°11'0 0.0
2019-Aug-19 03:28N 34°41' E 135°11'0 0.0
2019-Aug-19 02:52N 34°41' E 135°11'0 0.0
2019-Aug-19 02:28N 34°41' E 135°11'0 0.0
2019-Aug-19 01:58N 34°41' E 135°11'0 0.0
2019-Aug-19 01:28N 34°41' E 135°11'0 0.0
2019-Aug-19 00:52N 34°41' E 135°11'0 0.0
2019-Aug-19 00:28N 34°41' E 135°11'0 0.0
2019-Aug-18 23:58N 34°41' E 135°11'0 0.0
2019-Aug-18 23:28N 34°41' E 135°11'0 0.0
2019-Aug-18 22:58N 34°41' E 135°11'0 0.0
2019-Aug-18 22:28N 34°41' E 135°11'0 0.0
2019-Aug-18 21:52N 34°41' E 135°11'0 0.0
2019-Aug-18 21:28N 34°41' E 135°11'0 0.0
2019-Aug-18 20:58N 34°41' E 135°11'0 0.0
2019-Aug-18 20:16N 34°41' E 135°11'0 0.0
2019-Aug-18 19:58N 34°41' E 135°11'0 0.0
2019-Aug-18 19:28N 34°41' E 135°11'0 0.0
2019-Aug-18 18:58N 34°41' E 135°11'0 0.0
2019-Aug-18 18:28N 34°41' E 135°11'0 0.0
2019-Aug-18 17:58N 34°41' E 135°11'0 0.0
2019-Aug-18 17:28N 34°41' E 135°11'0 0.0
2019-Aug-18 16:58N 34°41' E 135°11'0 0.0
2019-Aug-18 16:22N 34°41' E 135°11'0 0.0
2019-Aug-18 15:58N 34°41' E 135°11'0 0.0
2019-Aug-18 15:28N 34°41' E 135°11'0 0.0
2019-Aug-18 14:58N 34°41' E 135°11'0 0.0
2019-Aug-18 14:28N 34°41' E 135°11'0 0.0
2019-Aug-18 13:52N 34°41' E 135°11'0 0.0
2019-Aug-18 13:28N 34°41' E 135°11'0 0.0
2019-Aug-18 12:52N 34°41' E 135°11'0 0.0
2019-Aug-18 12:28N 34°41' E 135°11'0 0.0
2019-Aug-18 11:58N 34°41' E 135°11'0 0.0
2019-Aug-18 11:28N 34°41' E 135°11'0 0.0
2019-Aug-18 10:58N 34°41' E 135°11'0 0.0
2019-Aug-18 10:28N 34°41' E 135°11'0 0.0
2019-Aug-18 09:58N 34°41' E 135°11'0 0.0
2019-Aug-18 09:28N 34°41' E 135°11'0 0.0
2019-Aug-18 08:58N 34°41' E 135°11'0 0.0
2019-Aug-18 08:28N 34°41' E 135°11'0 0.0
2019-Aug-18 07:58N 34°41' E 135°11'0 0.0
2019-Aug-18 06:46N 34°41' E 135°11'0 0.0
2019-Aug-18 06:28N 34°41' E 135°11'0 0.0
2019-Aug-18 05:52N 34°41' E 135°11'0 0.0
2019-Aug-18 05:28N 34°41' E 135°11'0 0.0
2019-Aug-18 04:52N 34°41' E 135°11'0 0.0
2019-Aug-18 04:28N 34°41' E 135°11'0 0.0
2019-Aug-18 03:52N 34°41' E 135°11'0 0.0
2019-Aug-18 03:22N 34°41' E 135°11'0 0.0
2019-Aug-18 02:58N 34°41' E 135°11'0 0.0
2019-Aug-18 02:28N 34°41' E 135°11'0 0.0
2019-Aug-18 01:52N 34°41' E 135°11'0 0.0
2019-Aug-18 01:28N 34°41' E 135°11'0 0.0
2019-Aug-18 00:58N 34°41' E 135°11'0 0.0
2019-Aug-18 00:28N 34°41' E 135°11'0 0.0
2019-Aug-17 23:58N 34°41' E 135°11'0 0.0
2019-Aug-17 23:28N 34°41' E 135°11'0 0.0
2019-Aug-17 22:58N 34°41' E 135°11'0 0.0
2019-Aug-17 22:28N 34°41' E 135°11'0 0.0
2019-Aug-17 21:58N 34°41' E 135°11'0 0.0
2019-Aug-17 21:28N 34°41' E 135°11'0 0.0
2019-Aug-17 20:58N 34°41' E 135°11'0 0.0
2019-Aug-17 20:28N 34°41' E 135°11'0 0.0
2019-Aug-17 19:58N 34°41' E 135°11'0 0.0
2019-Aug-17 19:28N 34°41' E 135°11'0 0.0
2019-Aug-17 18:58N 34°41' E 135°11'0 0.0
2019-Aug-17 18:28N 34°41' E 135°11'0 0.0
2019-Aug-17 17:28N 34°41' E 135°11'0 0.0
2019-Aug-17 16:40N 34°41' E 135°11'0 0.0
2019-Aug-17 16:22N 34°41' E 135°11'0 0.0
2019-Aug-17 15:52N 34°41' E 135°11'0 0.0
2019-Aug-17 15:16N 34°41' E 135°11'0 0.0
2019-Aug-17 14:58N 34°41' E 135°11'0 0.0
2019-Aug-17 14:28N 34°41' E 135°11'0 0.0
2019-Aug-17 13:58N 34°41' E 135°11'0 0.0
2019-Aug-17 13:28N 34°41' E 135°11'0 0.0
2019-Aug-17 12:58N 34°41' E 135°11'0 0.0
2019-Aug-17 12:28N 34°41' E 135°11'0 0.0
2019-Aug-17 11:58N 34°41' E 135°11'0 0.0
2019-Aug-17 11:28N 34°41' E 135°11'0 0.0
2019-Aug-17 10:58N 34°41' E 135°11'0 0.0
2019-Aug-17 10:28N 34°41' E 135°11'0 0.0
2019-Aug-17 09:58N 34°41' E 135°11'0 0.0
2019-Aug-17 09:28N 34°41' E 135°11'0 0.0
2019-Aug-17 08:58N 34°41' E 135°11'0 0.0
2019-Aug-17 08:28N 34°41' E 135°11'0 0.0
2019-Aug-17 07:58N 34°41' E 135°11'0 0.0
2019-Aug-17 07:28N 34°41' E 135°11'0 0.0
2019-Aug-17 06:58N 34°41' E 135°11'0 0.0
2019-Aug-17 06:28N 34°41' E 135°11'0 0.0
2019-Aug-17 05:58N 34°41' E 135°11'0 0.0
2019-Aug-17 05:28N 34°41' E 135°11'0 0.0
2019-Aug-17 04:58N 34°41' E 135°11'0 0.0
2019-Aug-17 04:28N 34°41' E 135°11'0 0.0
2019-Aug-17 03:58N 34°41' E 135°11'0 0.0
2019-Aug-17 03:28N 34°41' E 135°11'0 0.0
2019-Aug-17 03:00N 34°41' E 135°11'2 4.9
2019-Aug-17 02:30N 34°39' E 135°11'2 4.8
2019-Aug-17 02:01N 34°38' E 135°14'3 6.3
2019-Aug-17 01:30N 34°38' E 135°18'3 6.4
2019-Aug-17 01:01N 34°39' E 135°22'3 6.0
2019-Aug-17 00:30N 34°39' E 135°25'2 2.7
2019-Aug-16 23:54N 34°37' E 135°26'0 0.0
2019-Aug-16 23:30N 34°37' E 135°26'0 0.0
2019-Aug-16 22:30N 34°37' E 135°26'0 0.0
2019-Aug-16 19:54N 34°37' E 135°26'0 0.0
2019-Aug-16 18:30N 34°37' E 135°26'0 0.0
2019-Aug-16 16:42N 34°37' E 135°26'0 0.0
2019-Aug-16 15:42N 34°37' E 135°26'0 0.0
2019-Aug-16 15:24N 34°37' E 135°26'0 0.0
2019-Aug-16 14:00N 34°37' E 135°26'0 0.1
2019-Aug-16 13:30N 34°37' E 135°26'0 0.0
2019-Aug-16 13:00N 34°37' E 135°26'0 0.1
2019-Aug-16 12:30N 34°37' E 135°26'0 0.1
2019-Aug-16 12:00N 34°37' E 135°26'0 0.0
2019-Aug-16 11:24N 34°37' E 135°26'0 0.0
2019-Aug-16 09:42N 34°37' E 135°26'0 0.2
2019-Aug-16 09:24N 34°37' E 135°26'0 0.1
2019-Aug-16 08:36N 34°37' E 135°26'0 0.0
2019-Aug-16 06:18N 34°37' E 135°26'0 0.0
2019-Aug-16 04:48N 34°37' E 135°26'0 0.0
2019-Aug-16 03:24N 34°37' E 135°26'0 0.0
2019-Aug-16 02:24N 34°37' E 135°26'0 0.0
2019-Aug-16 00:06N 34°37' E 135°26'0 0.0
2019-Aug-15 23:54N 34°37' E 135°26'0 0.0
2019-Aug-15 23:24N 34°37' E 135°26'0 0.0
2019-Aug-15 21:36N 34°37' E 135°26'0 0.2
2019-Aug-15 21:24N 34°37' E 135°26'0 0.1
2019-Aug-15 21:00N 34°37' E 135°26'0 0.0
2019-Aug-15 20:24N 34°37' E 135°26'0 0.0
2019-Aug-15 19:42N 34°37' E 135°26'0 0.0
2019-Aug-15 19:18N 34°37' E 135°26'0 0.0
2019-Aug-15 19:00N 34°37' E 135°26'0 0.0
2019-Aug-15 18:24N 34°37' E 135°26'0 0.0
2019-Aug-15 17:48N 34°37' E 135°26'0 0.0
2019-Aug-15 17:24N 34°37' E 135°26'0 0.0
2019-Aug-15 16:54N 34°37' E 135°26'0 0.0
2019-Aug-15 16:30N 34°37' E 135°26'0 0.0
2019-Aug-15 15:54N 34°37' E 135°26'0 0.0
2019-Aug-15 15:18N 34°37' E 135°26'0 0.0
2019-Aug-15 15:00N 34°37' E 135°26'0 0.1
2019-Aug-15 14:12N 34°37' E 135°26'0 0.0
2019-Aug-15 13:54N 34°37' E 135°26'0 0.0
2019-Aug-15 12:54N 34°37' E 135°26'0 0.0
2019-Aug-15 12:30N 34°37' E 135°26'0 0.1
2019-Aug-15 12:00N 34°37' E 135°26'0 0.1
2019-Aug-15 11:18N 34°37' E 135°26'0 0.0
2019-Aug-15 10:48N 34°37' E 135°26'0 0.2
2019-Aug-15 10:30N 34°37' E 135°26'0 0.0
2019-Aug-15 09:54N 34°37' E 135°26'0 0.1
2019-Aug-15 09:24N 34°37' E 135°26'0 0.1
2019-Aug-15 09:00N 34°37' E 135°26'0 0.0
2019-Aug-15 08:24N 34°37' E 135°26'0 0.0
2019-Aug-15 08:00N 34°37' E 135°26'0 0.0
2019-Aug-15 07:18N 34°37' E 135°26'0 0.0
2019-Aug-15 06:36N 34°37' E 135°26'0 0.0
2019-Aug-15 06:24N 34°37' E 135°26'0 0.0
2019-Aug-15 05:48N 34°37' E 135°26'0 0.0
2019-Aug-15 05:06N 34°37' E 135°26'0 0.0
2019-Aug-15 04:18N 34°37' E 135°26'0 0.0
2019-Aug-15 04:00N 34°37' E 135°26'0 0.1
2019-Aug-15 03:12N 34°37' E 135°26'0 0.0
2019-Aug-15 01:06N 34°37' E 135°26'0 0.1
2019-Aug-15 00:30N 34°37' E 135°26'0 0.1
2019-Aug-14 23:42N 34°37' E 135°26'0 0.1
2019-Aug-14 23:00N 34°37' E 135°26'0 0.0
2019-Aug-14 21:48N 34°37' E 135°26'0 0.0
2019-Aug-14 21:30N 34°37' E 135°26'0 0.1
2019-Aug-14 20:42N 34°37' E 135°26'0 0.1
2019-Aug-14 20:12N 34°37' E 135°26'0 0.0
2019-Aug-14 19:48N 34°37' E 135°26'0 0.0
2019-Aug-14 19:30N 34°37' E 135°26'0 0.1
2019-Aug-14 18:42N 34°37' E 135°26'0 0.2
2019-Aug-14 18:30N 34°37' E 135°26'0 0.0
2019-Aug-14 17:24N 34°37' E 135°26'0 0.0
2019-Aug-14 16:54N 34°37' E 135°26'0 0.0
2019-Aug-14 16:06N 34°37' E 135°26'0 0.0
2019-Aug-14 16:00N 34°37' E 135°26'0 0.0
2019-Aug-14 15:12N 34°37' E 135°26'0 0.0
2019-Aug-14 14:24N 34°37' E 135°26'0 0.0
2019-Aug-14 13:48N 34°37' E 135°26'0 0.0
2019-Aug-14 13:24N 34°37' E 135°26'0 0.1
2019-Aug-14 13:00N 34°37' E 135°26'0 0.1
2019-Aug-14 12:12N 34°37' E 135°26'0 0.0
2019-Aug-14 11:48N 34°37' E 135°26'0 0.0
2019-Aug-14 11:06N 34°37' E 135°26'0 0.0
2019-Aug-14 10:18N 34°37' E 135°26'0 0.0
2019-Aug-14 10:00N 34°37' E 135°26'0 0.0
2019-Aug-14 09:06N 34°37' E 135°26'0 0.0
2019-Aug-14 09:00N 34°37' E 135°26'0 0.0
2019-Aug-14 08:24N 34°37' E 135°26'0 0.0
2019-Aug-14 08:00N 34°37' E 135°26'0 0.0
2019-Aug-14 07:18N 34°37' E 135°26'0 0.1
2019-Aug-14 06:48N 34°37' E 135°26'  

Dump ship's entire track history